createdAt,value
2023-02-02T00:01:46.652Z,56.02
2023-02-02T00:04:19.247Z,56.13
2023-02-02T00:06:47.582Z,56.18
2023-02-02T00:09:17.244Z,56.06
2023-02-02T00:11:46.848Z,56.09
2023-02-02T00:14:15.399Z,56.13
2023-02-02T00:16:44.707Z,56.12
2023-02-02T00:19:15.808Z,56.03
2023-02-02T00:21:46.447Z,56.00
2023-02-02T00:24:17.996Z,56.28
2023-02-02T00:26:47.616Z,56.18
2023-02-02T00:29:18.434Z,56.06
2023-02-02T00:31:46.537Z,56.30
2023-02-02T00:34:16.064Z,55.87
2023-02-02T00:36:46.427Z,56.25
2023-02-02T00:39:18.602Z,56.33
2023-02-02T00:41:47.077Z,56.41
2023-02-02T00:44:32.315Z,56.51
2023-02-02T00:47:00.280Z,56.64
2023-02-02T00:49:28.224Z,56.74
2023-02-02T00:51:58.110Z,56.72
2023-02-02T00:54:26.410Z,56.69
2023-02-02T00:56:54.566Z,56.85
2023-02-02T00:59:22.629Z,56.75
2023-02-02T01:01:50.910Z,56.82
2023-02-02T01:04:19.610Z,56.66
2023-02-02T01:06:47.748Z,56.86
2023-02-02T01:09:17.521Z,56.79
2023-02-02T01:11:47.264Z,56.66
2023-02-02T01:14:15.543Z,57.03
2023-02-02T01:16:43.754Z,56.87
2023-02-02T01:19:14.173Z,56.78
2023-02-02T01:21:43.057Z,57.05
2023-02-02T01:24:11.439Z,57.11
2023-02-02T01:26:40.909Z,56.95
2023-02-02T01:29:08.969Z,57.12
2023-02-02T01:31:37.164Z,57.32
2023-02-02T01:34:05.257Z,57.08
2023-02-02T01:36:33.255Z,57.08
2023-02-02T01:39:01.468Z,57.23
2023-02-02T01:41:29.555Z,57.18
2023-02-02T01:44:01.320Z,57.26
2023-02-02T01:46:31.088Z,57.13
2023-02-02T01:49:05.498Z,57.37
2023-02-02T01:51:43.253Z,57.52
2023-02-02T01:54:16.978Z,57.41
2023-02-02T01:56:52.255Z,57.34
2023-02-02T01:59:23.307Z,57.46
2023-02-02T02:01:55.124Z,57.29
2023-02-02T02:04:25.856Z,57.24
2023-02-02T02:06:54.499Z,56.88
2023-02-02T02:09:23.085Z,57.04
2023-02-02T02:11:54.209Z,57.38
2023-02-02T02:14:42.496Z,57.13
2023-02-02T02:17:30.775Z,57.20
2023-02-02T02:20:43.124Z,56.97
2023-02-02T02:24:02.851Z,56.99
2023-02-02T02:26:54.418Z,56.58
2023-02-02T02:29:43.944Z,56.93
2023-02-02T02:32:40.350Z,56.83
2023-02-02T02:35:14.887Z,56.98
2023-02-02T02:37:50.486Z,56.66
2023-02-02T02:40:25.406Z,57.11
2023-02-02T02:42:59.427Z,57.13
2023-02-02T02:45:30.187Z,56.91
2023-02-02T02:48:00.022Z,56.88
2023-02-02T02:50:28.197Z,56.99
2023-02-02T02:53:03.479Z,57.03
2023-02-02T02:55:38.214Z,56.97
2023-02-02T02:58:11.089Z,57.00
2023-02-02T03:00:53.209Z,56.90
2023-02-02T03:03:32.320Z,56.90
2023-02-02T03:06:09.692Z,56.85
2023-02-02T03:08:41.846Z,57.10
2023-02-02T03:11:12.645Z,57.08
2023-02-02T03:13:42.822Z,57.09
2023-02-02T03:16:11.693Z,57.09
2023-02-02T03:18:41.239Z,57.47
2023-02-02T03:21:09.413Z,58.00
2023-02-02T03:23:38.702Z,58.23
2023-02-02T03:26:07.347Z,57.85
2023-02-02T03:28:36.144Z,58.00
2023-02-02T03:31:04.436Z,57.83
2023-02-02T03:33:34.268Z,57.95
2023-02-02T03:36:04.234Z,57.93
2023-02-02T03:38:32.553Z,57.85
2023-02-02T03:41:00.738Z,58.02
2023-02-02T03:43:28.767Z,57.87
2023-02-02T03:45:57.680Z,57.80
2023-02-02T03:48:26.298Z,57.64
2023-02-02T03:50:54.490Z,57.62
2023-02-02T03:53:24.470Z,57.78
2023-02-02T03:55:52.793Z,57.79
2023-02-02T03:58:22.446Z,57.92
2023-02-02T04:00:50.865Z,58.13
2023-02-02T04:03:19.018Z,58.41
2023-02-02T04:05:50.816Z,58.60
2023-02-02T04:08:18.780Z,58.64
2023-02-02T04:10:48.363Z,58.61
2023-02-02T04:13:16.801Z,59.12
2023-02-02T04:15:44.849Z,58.80
2023-02-02T04:18:12.836Z,58.91
2023-02-02T04:20:40.843Z,58.55
2023-02-02T04:23:08.789Z,58.89
2023-02-02T04:25:36.816Z,59.08
2023-02-02T04:28:07.335Z,59.17
2023-02-02T04:30:35.352Z,59.04
2023-02-02T04:33:03.582Z,59.02
2023-02-02T04:35:31.762Z,59.50
2023-02-02T04:37:59.870Z,59.08
2023-02-02T04:40:28.030Z,59.26
2023-02-02T04:42:56.072Z,59.43
2023-02-02T04:45:25.833Z,59.21
2023-02-02T04:47:56.171Z,58.72
2023-02-02T04:50:24.179Z,58.73
2023-02-02T04:52:52.411Z,58.88
2023-02-02T04:55:21.129Z,58.73
2023-02-02T04:57:52.218Z,58.78
2023-02-02T05:00:20.612Z,58.35
2023-02-02T05:02:49.985Z,58.33
2023-02-02T05:05:18.271Z,58.54
2023-02-02T05:07:46.440Z,58.34
2023-02-02T05:10:15.126Z,57.63
2023-02-02T05:12:45.213Z,57.96
2023-02-02T05:15:13.628Z,57.65
2023-02-02T05:17:42.066Z,57.65
2023-02-02T05:20:16.397Z,57.51
2023-02-02T05:22:44.552Z,57.29
2023-02-02T05:25:12.724Z,57.38
2023-02-02T05:27:40.979Z,57.26
2023-02-02T05:30:12.478Z,57.21
2023-02-02T05:32:40.698Z,57.27
2023-02-02T05:35:14.479Z,57.08
2023-02-02T05:37:44.378Z,57.12
2023-02-02T05:40:13.368Z,56.99
2023-02-02T05:42:41.355Z,57.01
2023-02-02T05:45:10.457Z,56.88
2023-02-02T05:47:38.407Z,56.97
2023-02-02T05:50:06.932Z,57.02
2023-02-02T05:52:38.097Z,56.70
2023-02-02T05:55:06.723Z,57.24
2023-02-02T05:57:35.123Z,56.91
2023-02-02T06:00:03.612Z,57.05
2023-02-02T06:02:32.031Z,57.22
2023-02-02T06:05:00.105Z,56.96
2023-02-02T06:07:28.230Z,57.17
2023-02-02T06:09:58.328Z,57.02
2023-02-02T06:12:26.322Z,57.05
2023-02-02T06:14:54.802Z,57.33
2023-02-02T06:17:22.829Z,57.33
2023-02-02T06:19:50.909Z,57.42
2023-02-02T06:22:18.904Z,57.56
2023-02-02T06:24:46.877Z,57.67
2023-02-02T06:27:16.527Z,57.16
2023-02-02T06:29:44.412Z,57.59
2023-02-02T06:32:12.510Z,57.48
2023-02-02T06:34:40.530Z,57.67
2023-02-02T06:37:08.637Z,57.65
2023-02-02T06:39:36.728Z,57.99
2023-02-02T06:42:19.362Z,57.67
2023-02-02T06:44:50.610Z,57.82
2023-02-02T06:47:18.508Z,57.81
2023-02-02T06:49:46.575Z,57.69
2023-02-02T06:52:14.552Z,57.67
2023-02-02T06:54:42.526Z,57.90
2023-02-02T06:57:10.582Z,57.97
2023-02-02T06:59:38.614Z,57.57
2023-02-02T07:02:12.294Z,57.81
2023-02-02T07:04:40.229Z,57.61
2023-02-02T07:07:08.168Z,57.90
2023-02-02T07:09:36.964Z,57.80
2023-02-02T07:12:05.106Z,58.24
2023-02-02T07:14:33.040Z,57.94
2023-02-02T07:17:01.015Z,58.10
2023-02-02T07:19:30.707Z,58.07
2023-02-02T07:21:58.626Z,57.85
2023-02-02T07:24:28.664Z,57.97
2023-02-02T07:26:58.118Z,58.13
2023-02-02T07:29:26.680Z,58.03
2023-02-02T07:31:55.022Z,57.81
2023-02-02T07:34:23.328Z,57.97
2023-02-02T07:36:52.990Z,58.02
2023-02-02T07:39:21.087Z,58.29
2023-02-02T07:41:49.161Z,57.86
2023-02-02T07:44:17.993Z,58.09
2023-02-02T07:46:47.129Z,58.05
2023-02-02T07:49:16.927Z,57.94
2023-02-02T07:51:47.746Z,57.89
2023-02-02T07:54:18.338Z,58.24
2023-02-02T07:56:46.550Z,58.11
2023-02-02T07:59:14.676Z,57.78
2023-02-02T08:01:43.379Z,57.71
2023-02-02T08:04:11.347Z,57.83
2023-02-02T08:06:41.568Z,57.89
2023-02-02T08:09:11.135Z,58.00
2023-02-02T08:11:40.642Z,57.71
2023-02-02T08:14:08.799Z,57.89
2023-02-02T08:16:37.171Z,57.59
2023-02-02T08:19:05.720Z,57.86
2023-02-02T08:21:34.811Z,57.60
2023-02-02T08:24:04.650Z,57.58
2023-02-02T08:26:33.436Z,57.48
2023-02-02T08:29:05.818Z,57.48
2023-02-02T08:31:35.762Z,57.53
2023-02-02T08:34:03.894Z,57.32
2023-02-02T08:36:35.618Z,57.05
2023-02-02T08:39:05.999Z,57.18
2023-02-02T08:41:34.825Z,57.12
2023-02-02T08:44:07.041Z,57.10
2023-02-02T08:46:41.908Z,57.15
2023-02-02T08:49:11.748Z,56.70
2023-02-02T08:51:39.818Z,56.97
2023-02-02T08:54:07.810Z,57.32
2023-02-02T08:56:35.835Z,56.79
2023-02-02T08:59:06.148Z,56.69
2023-02-02T09:01:35.753Z,56.89
2023-02-02T09:04:05.954Z,56.87
2023-02-02T09:06:35.715Z,56.84
2023-02-02T09:09:04.706Z,56.92
2023-02-02T09:11:33.203Z,56.62
2023-02-02T09:14:02.315Z,56.77
2023-02-02T09:16:31.713Z,56.69
2023-02-02T09:18:59.948Z,56.56
2023-02-02T09:21:29.063Z,56.47
2023-02-02T09:23:56.897Z,56.59
2023-02-02T09:26:28.704Z,56.51
2023-02-02T09:28:59.213Z,56.56
2023-02-02T09:31:27.760Z,56.46
2023-02-02T09:33:57.504Z,56.31
2023-02-02T09:36:26.973Z,56.36
2023-02-02T09:38:58.277Z,56.42
2023-02-02T09:42:01.303Z,56.45
2023-02-02T09:44:46.893Z,56.55
2023-02-02T09:47:20.759Z,56.64
2023-02-02T09:50:01.555Z,56.66
2023-02-02T09:52:31.856Z,56.71
2023-02-02T09:55:04.551Z,56.83
2023-02-02T09:57:40.595Z,56.44
2023-02-02T10:00:25.769Z,56.74
2023-02-02T10:03:01.008Z,56.57
2023-02-02T10:05:43.922Z,56.71
2023-02-02T10:08:33.652Z,56.59
2023-02-02T10:11:10.501Z,56.54
2023-02-02T10:13:43.770Z,56.73
2023-02-02T10:16:18.217Z,57.25
2023-02-02T10:18:53.115Z,57.25
2023-02-02T10:21:30.400Z,57.11
2023-02-02T10:24:00.167Z,57.47
2023-02-02T10:26:38.080Z,57.09
2023-02-02T10:29:17.006Z,57.09
2023-02-02T10:31:54.412Z,57.00
2023-02-02T10:34:29.355Z,56.76
2023-02-02T10:37:06.692Z,56.95
2023-02-02T10:39:48.130Z,56.80
2023-02-02T10:42:28.176Z,56.71
2023-02-02T10:45:00.293Z,56.70
2023-02-02T10:47:31.590Z,56.56
2023-02-02T10:50:09.169Z,57.02
2023-02-02T10:52:39.873Z,57.08
2023-02-02T10:55:18.628Z,57.23
2023-02-02T10:58:02.137Z,57.42
2023-02-02T11:00:36.305Z,58.04
2023-02-02T11:03:07.320Z,57.69
2023-02-02T11:05:53.558Z,57.61
2023-02-02T11:08:30.462Z,57.62
2023-02-02T11:11:09.983Z,57.78
2023-02-02T11:13:43.463Z,58.16
2023-02-02T11:16:32.685Z,58.16
2023-02-02T11:19:23.907Z,58.50
2023-02-02T11:21:54.849Z,58.42
2023-02-02T11:24:28.961Z,58.17
2023-02-02T11:27:01.238Z,58.16
2023-02-02T11:29:32.654Z,58.31
2023-02-02T11:32:20.094Z,57.88
2023-02-02T11:34:48.222Z,57.80
2023-02-02T11:37:22.285Z,57.51
2023-02-02T11:39:53.913Z,57.88
2023-02-02T11:42:29.449Z,57.59
2023-02-02T11:45:00.979Z,57.79
2023-02-02T11:47:31.792Z,57.09
2023-02-02T11:50:02.603Z,57.14
2023-02-02T11:52:34.227Z,56.71
2023-02-02T11:55:16.360Z,56.95
2023-02-02T11:58:27.538Z,57.06
2023-02-02T12:01:00.306Z,57.23
2023-02-02T12:03:34.713Z,56.91
2023-02-02T12:06:18.565Z,57.12
2023-02-02T12:08:47.255Z,56.93
2023-02-02T12:11:29.637Z,56.85
2023-02-02T12:14:12.166Z,56.73
2023-02-02T12:16:53.959Z,56.55
2023-02-02T12:19:46.152Z,56.65
2023-02-02T12:22:25.656Z,57.05
2023-02-02T12:24:58.655Z,57.67
2023-02-02T12:27:38.952Z,58.24
2023-02-02T12:30:24.305Z,58.39
2023-02-02T12:33:07.244Z,58.14
2023-02-02T12:35:54.811Z,58.13
2023-02-02T12:38:39.776Z,57.83
2023-02-02T12:41:25.437Z,57.83
2023-02-02T12:44:04.163Z,58.32
2023-02-02T12:46:55.767Z,57.71
2023-02-02T12:49:37.642Z,57.43
2023-02-02T12:52:31.668Z,57.37
2023-02-02T12:55:13.357Z,57.89
2023-02-02T12:57:54.221Z,58.24
2023-02-02T13:00:39.839Z,58.28
2023-02-02T13:03:22.542Z,58.13
2023-02-02T13:06:03.809Z,57.63
2023-02-02T13:08:35.137Z,57.33
2023-02-02T13:11:28.484Z,57.37
2023-02-02T13:13:59.827Z,56.79
2023-02-02T13:16:32.204Z,56.49
2023-02-02T13:19:05.851Z,56.52
2023-02-02T13:21:34.183Z,56.29
2023-02-02T13:24:06.048Z,56.11
2023-02-02T13:26:39.047Z,55.70
2023-02-02T13:29:13.000Z,55.93
2023-02-02T13:31:48.623Z,56.00
2023-02-02T13:34:22.086Z,56.35
2023-02-02T13:36:55.568Z,56.54
2023-02-02T13:39:30.388Z,56.29
2023-02-02T13:41:58.923Z,56.52
2023-02-02T13:44:33.474Z,56.22
2023-02-02T13:47:06.844Z,56.27
2023-02-02T13:49:41.040Z,56.30
2023-02-02T13:52:26.217Z,56.47
2023-02-02T13:55:25.956Z,56.78
2023-02-02T13:58:17.303Z,57.35
2023-02-02T14:00:49.560Z,57.12
2023-02-02T14:03:32.276Z,57.10
2023-02-02T14:06:07.522Z,56.80
2023-02-02T14:08:36.567Z,56.13
2023-02-02T14:11:06.949Z,55.97
2023-02-02T14:14:00.997Z,56.47
2023-02-02T14:16:47.992Z,56.75
2023-02-02T14:19:19.628Z,57.52
2023-02-02T14:22:01.906Z,58.17
2023-02-02T14:24:42.279Z,58.39
2023-02-02T14:27:57.855Z,58.49
2023-02-02T14:30:35.746Z,58.63
2023-02-02T14:33:39.954Z,57.89
2023-02-02T14:36:15.397Z,57.41
2023-02-02T14:39:05.530Z,57.57
2023-02-02T14:42:28.731Z,57.72
2023-02-02T14:45:15.394Z,57.74
2023-02-02T14:47:49.882Z,57.88
2023-02-02T14:50:23.212Z,57.82
2023-02-02T14:53:03.025Z,58.14
2023-02-02T14:55:31.735Z,57.84
2023-02-02T14:58:02.135Z,57.75
2023-02-02T15:00:33.518Z,57.49
2023-02-02T15:03:47.579Z,57.04
2023-02-02T15:06:33.176Z,56.82
2023-02-02T15:09:36.866Z,57.24
2023-02-02T15:12:30.842Z,56.62
2023-02-02T15:15:08.192Z,56.92
2023-02-02T15:17:53.483Z,56.66
2023-02-02T15:20:28.362Z,56.32
2023-02-02T15:23:00.894Z,55.89
2023-02-02T15:25:37.071Z,56.08
2023-02-02T15:28:14.913Z,55.91
2023-02-02T15:30:45.313Z,56.08
2023-02-02T15:33:25.403Z,56.07
2023-02-02T15:35:54.905Z,56.57
2023-02-02T15:38:32.973Z,56.61
2023-02-02T15:41:05.640Z,56.93
2023-02-02T15:43:35.825Z,57.08
2023-02-02T15:46:07.725Z,56.92
2023-02-02T15:48:36.573Z,56.97
2023-02-02T15:51:06.839Z,57.08
2023-02-02T15:53:48.970Z,57.13
2023-02-02T15:56:30.614Z,57.17
2023-02-02T15:59:00.121Z,57.19
2023-02-02T16:01:33.799Z,56.98
2023-02-02T16:04:15.851Z,57.20
2023-02-02T16:06:44.782Z,57.21
2023-02-02T16:09:32.784Z,56.95
2023-02-02T16:12:05.441Z,57.15
2023-02-02T16:14:37.673Z,57.11
2023-02-02T16:17:13.791Z,57.04
2023-02-02T16:19:45.181Z,57.16
2023-02-02T16:22:18.211Z,57.36
2023-02-02T16:24:51.307Z,57.54
2023-02-02T16:27:24.174Z,57.56
2023-02-02T16:29:52.333Z,57.73
2023-02-02T16:32:28.614Z,58.32
2023-02-02T16:34:57.540Z,58.32
2023-02-02T16:37:28.172Z,58.34
2023-02-02T16:39:57.108Z,58.62
2023-02-02T16:42:31.868Z,58.84
2023-02-02T16:45:01.085Z,58.71
2023-02-02T16:47:39.002Z,59.00
2023-02-02T16:50:27.660Z,58.82
2023-02-02T16:52:59.357Z,58.88
2023-02-02T16:55:43.472Z,58.72
2023-02-02T16:58:20.903Z,58.53
2023-02-02T17:01:08.786Z,58.54
2023-02-02T17:03:50.262Z,58.66
2023-02-02T17:06:18.776Z,58.59
2023-02-02T17:08:47.876Z,58.47
2023-02-02T17:11:24.084Z,58.47
2023-02-02T17:13:54.491Z,58.28
2023-02-02T17:16:24.753Z,58.31
2023-02-02T17:18:53.254Z,58.51
2023-02-02T17:21:23.828Z,58.76
2023-02-02T17:23:54.216Z,58.42
2023-02-02T17:26:22.565Z,58.21
2023-02-02T17:28:56.275Z,58.22
2023-02-02T17:31:24.422Z,58.21
2023-02-02T17:33:52.403Z,58.04
2023-02-02T17:36:20.737Z,57.70
2023-02-02T17:38:48.641Z,57.73
2023-02-02T17:41:16.693Z,58.12
2023-02-02T17:43:45.866Z,57.81
2023-02-02T17:46:15.232Z,57.73
2023-02-02T17:48:43.362Z,57.85
2023-02-02T17:51:16.125Z,57.99
2023-02-02T17:53:44.912Z,58.18
2023-02-02T17:56:12.996Z,58.23
2023-02-02T17:58:40.999Z,58.02
2023-02-02T18:01:12.004Z,58.08
2023-02-02T18:03:42.823Z,58.09
2023-02-02T18:06:12.333Z,58.08
2023-02-02T18:08:40.932Z,58.25
2023-02-02T18:11:12.327Z,58.19
2023-02-02T18:13:42.555Z,58.13
2023-02-02T18:16:11.622Z,58.15
2023-02-02T18:18:41.545Z,58.34
2023-02-02T18:21:10.683Z,58.43
2023-02-02T18:23:39.312Z,58.30
2023-02-02T18:26:12.044Z,58.34
2023-02-02T18:28:40.618Z,58.42
2023-02-02T18:31:10.169Z,58.55
2023-02-02T18:33:40.733Z,58.27
2023-02-02T18:36:23.686Z,58.70
2023-02-02T18:38:53.981Z,58.57
2023-02-02T18:41:23.512Z,58.56
2023-02-02T18:43:54.776Z,58.85
2023-02-02T18:46:22.794Z,58.83
2023-02-02T18:48:50.931Z,58.82
2023-02-02T18:51:21.965Z,58.80
2023-02-02T18:53:49.979Z,59.11
2023-02-02T18:56:18.440Z,58.91
2023-02-02T18:58:46.453Z,59.16
2023-02-02T19:01:17.219Z,59.17
2023-02-02T19:03:50.211Z,59.43
2023-02-02T19:06:37.267Z,59.50
2023-02-02T19:09:07.560Z,59.47
2023-02-02T19:11:39.087Z,59.67
2023-02-02T19:14:13.611Z,59.87
2023-02-02T19:16:41.785Z,59.86
2023-02-02T19:19:17.807Z,59.96
2023-02-02T19:21:45.795Z,59.93
2023-02-02T19:24:15.937Z,59.98
2023-02-02T19:26:47.334Z,60.19
2023-02-02T19:29:19.933Z,60.11
2023-02-02T19:31:53.671Z,60.04
2023-02-02T19:34:24.189Z,60.17
2023-02-02T19:36:52.423Z,60.13
2023-02-02T19:39:28.525Z,60.27
2023-02-02T19:42:00.466Z,60.53
2023-02-02T19:44:32.211Z,60.53
2023-02-02T19:47:00.658Z,60.59
2023-02-02T19:49:32.967Z,60.65
2023-02-02T19:52:03.963Z,61.18
2023-02-02T19:54:38.062Z,60.98
2023-02-02T19:57:17.355Z,61.33
2023-02-02T19:59:48.259Z,61.45
2023-02-02T20:02:39.332Z,61.72
2023-02-02T20:05:19.018Z,61.55
2023-02-02T20:07:47.511Z,61.70
2023-02-02T20:10:27.435Z,61.78
2023-02-02T20:12:56.224Z,61.89
2023-02-02T20:15:34.278Z,61.74
2023-02-02T20:18:04.789Z,61.87
2023-02-02T20:20:40.320Z,61.72
2023-02-02T20:23:24.451Z,61.67
2023-02-02T20:25:54.151Z,61.57
2023-02-02T20:28:41.728Z,61.41
2023-02-02T20:31:12.086Z,61.26
2023-02-02T20:33:43.074Z,61.13
2023-02-02T20:36:29.887Z,61.31
2023-02-02T20:39:01.408Z,61.04
2023-02-02T20:41:31.973Z,60.96
2023-02-02T20:43:59.842Z,61.06
2023-02-02T20:46:27.818Z,61.04
2023-02-02T20:48:55.709Z,61.44
2023-02-02T20:51:23.927Z,61.40
2023-02-02T20:53:55.551Z,61.60
2023-02-02T20:56:23.705Z,61.71
2023-02-02T20:58:53.221Z,61.90
2023-02-02T21:01:23.620Z,61.74
2023-02-02T21:03:51.649Z,61.75
2023-02-02T21:06:19.898Z,61.83
2023-02-02T21:08:51.540Z,62.03
2023-02-02T21:11:20.058Z,61.78
2023-02-02T21:13:48.531Z,62.07
2023-02-02T21:16:20.442Z,61.68
2023-02-02T21:18:48.622Z,61.86
2023-02-02T21:21:17.139Z,62.17
2023-02-02T21:23:47.292Z,61.81
2023-02-02T21:26:15.686Z,61.75
2023-02-02T21:28:43.872Z,61.50
2023-02-02T21:31:14.043Z,61.80
2023-02-02T21:33:44.944Z,61.64
2023-02-02T21:36:29.797Z,61.52
2023-02-02T21:39:03.890Z,61.91
2023-02-02T21:41:34.493Z,61.68
2023-02-02T21:44:02.503Z,61.53
2023-02-02T21:46:36.960Z,61.46
2023-02-02T21:49:13.969Z,61.63
2023-02-02T21:51:42.037Z,61.26
2023-02-02T21:54:26.403Z,61.43
2023-02-02T21:56:55.615Z,61.46
2023-02-02T21:59:25.423Z,61.17
2023-02-02T22:01:53.744Z,61.40
2023-02-02T22:04:25.854Z,61.28
2023-02-02T22:06:55.517Z,61.01
2023-02-02T22:09:28.172Z,61.30
2023-02-02T22:11:59.265Z,61.15
2023-02-02T22:14:37.101Z,61.08
2023-02-02T22:17:23.231Z,61.31
2023-02-02T22:19:58.177Z,61.35
2023-02-02T22:22:32.052Z,61.10
2023-02-02T22:25:01.374Z,61.49
2023-02-02T22:27:41.882Z,61.48
2023-02-02T22:30:22.208Z,61.69
2023-02-02T22:32:50.226Z,61.30
2023-02-02T22:35:19.781Z,61.68
2023-02-02T22:37:47.824Z,62.13
2023-02-02T22:40:16.518Z,61.70
2023-02-02T22:42:44.900Z,61.75
2023-02-02T22:45:13.021Z,61.78
2023-02-02T22:47:41.069Z,61.56
2023-02-02T22:50:09.613Z,61.58
2023-02-02T22:52:39.063Z,61.65
2023-02-02T22:55:07.972Z,61.67
2023-02-02T22:57:36.028Z,61.68
2023-02-02T23:00:05.825Z,61.76
2023-02-02T23:02:34.121Z,61.35
2023-02-02T23:05:02.117Z,61.76
2023-02-02T23:07:30.122Z,61.32
2023-02-02T23:09:59.499Z,61.61
2023-02-02T23:12:27.441Z,61.50
2023-02-02T23:14:55.347Z,61.63
2023-02-02T23:17:23.402Z,61.48
2023-02-02T23:19:51.396Z,61.38
2023-02-02T23:22:19.357Z,60.91
2023-02-02T23:24:47.214Z,61.28
2023-02-02T23:27:17.081Z,61.57
2023-02-02T23:29:45.062Z,61.59
2023-02-02T23:32:13.161Z,61.68
2023-02-02T23:34:41.156Z,61.32
2023-02-02T23:37:09.084Z,61.47
2023-02-02T23:39:36.992Z,61.25
2023-02-02T23:42:05.146Z,61.25
2023-02-02T23:44:34.561Z,61.22
2023-02-02T23:47:02.975Z,61.12
2023-02-02T23:49:33.898Z,61.19
2023-02-02T23:52:02.311Z,61.31
2023-02-02T23:54:31.418Z,61.27
2023-02-02T23:56:59.798Z,61.41
2023-02-02T23:59:28.122Z,61.06
